Time;durP1;ratioP1;P1;durP2;ratioP2;P2;SDS_P1;SDS_P2;PMS_P1;PMS_P2;Temp;Humidity;BMP_temperature;BMP_pressure;BME280_temperature;BME280_humidity;BME280_pressure;Samples;Min_cycle;Max_cycle;Signal;HPM_P1;HPM_P2
2023/12/16 00:01:28;;;;;;;8.00;4.97;;;9.30;99.90;;;;;;10161994;28;20024;-66
2023/12/16 00:06:20;;;;;;;8.15;4.72;;;9.40;99.90;;;;;;10167629;28;20032;-65
2023/12/16 00:11:10;;;;;;;10.25;5.07;;;9.40;99.90;;;;;;10148745;28;20062;-66
2023/12/16 00:16:01;;;;;;;12.63;5.65;;;9.30;99.90;;;;;;10164296;28;20056;-65
2023/12/16 00:20:52;;;;;;;10.10;4.80;;;9.30;99.90;;;;;;10175625;28;20028;-66
2023/12/16 00:25:43;;;;;;;10.27;4.90;;;9.30;99.90;;;;;;10155429;28;20044;-65
2023/12/16 00:30:33;;;;;;;7.97;4.93;;;9.40;99.90;;;;;;10175394;28;20095;-66
2023/12/16 00:35:24;;;;;;;8.85;4.47;;;9.40;99.90;;;;;;10182293;28;20032;-66
2023/12/16 00:40:14;;;;;;;8.45;4.85;;;9.40;99.90;;;;;;10167800;28;20024;-66
2023/12/16 00:45:06;;;;;;;5.15;3.83;;;9.50;99.90;;;;;;10172435;28;20043;-65
2023/12/16 00:49:57;;;;;;;10.90;4.78;;;9.40;99.90;;;;;;10171728;28;20024;-65
2023/12/16 00:54:48;;;;;;;8.65;4.78;;;9.40;99.90;;;;;;10173421;28;20039;-66
2023/12/16 00:59:38;;;;;;;10.07;5.20;;;9.40;99.90;;;;;;10179438;28;20515;-66
2023/12/16 01:04:29;;;;;;;9.00;4.90;;;9.40;99.90;;;;;;10181994;28;20036;-66
2023/12/16 01:09:19;;;;;;;8.13;4.38;;;9.40;99.90;;;;;;10181883;28;20087;-66
2023/12/16 01:14:10;;;;;;;9.40;4.85;;;9.40;99.90;;;;;;10176236;28;20083;-65
2023/12/16 01:19:01;;;;;;;8.02;5.00;;;9.40;99.90;;;;;;10174995;28;20056;-66
2023/12/16 01:23:51;;;;;;;7.07;4.85;;;9.40;99.90;;;;;;10173465;28;20047;-66
2023/12/16 01:28:42;;;;;;;9.35;5.05;;;9.40;99.90;;;;;;10174285;28;20526;-66
2023/12/16 01:33:33;;;;;;;8.98;5.05;;;9.40;99.90;;;;;;10174389;28;20523;-65
2023/12/16 01:38:23;;;;;;;10.85;4.95;;;9.40;99.90;;;;;;10176896;28;20024;-67
2023/12/16 01:43:14;;;;;;;8.73;6.20;;;9.40;99.90;;;;;;10187828;28;20035;-65
2023/12/16 01:48:06;;;;;;;8.27;5.10;;;9.30;99.90;;;;;;10181414;28;20123;-66
2023/12/16 01:52:57;;;;;;;11.20;6.30;;;9.30;99.90;;;;;;10176442;28;20148;-66
2023/12/16 01:57:48;;;;;;;9.50;5.53;;;9.30;99.90;;;;;;10179845;28;20028;-66
2023/12/16 02:02:40;;;;;;;7.03;5.18;;;9.20;99.90;;;;;;10178610;28;20040;-66
2023/12/16 02:07:31;;;;;;;10.60;5.95;;;9.30;99.90;;;;;;10177120;28;20386;-67
2023/12/16 02:12:22;;;;;;;10.00;5.95;;;9.30;99.90;;;;;;10175355;28;20020;-67
2023/12/16 02:17:13;;;;;;;11.10;5.47;;;9.20;99.90;;;;;;10176379;28;20191;-66
2023/12/16 02:22:03;;;;;;;7.57;4.43;;;9.20;99.90;;;;;;10179322;28;20056;-67
2023/12/16 02:26:55;;;;;;;11.07;4.38;;;9.20;99.90;;;;;;10178081;28;20043;-66
2023/12/16 02:31:46;;;;;;;7.32;4.88;;;9.20;99.90;;;;;;10170106;28;20032;-65
2023/12/16 02:36:37;;;;;;;7.47;3.95;;;9.20;99.90;;;;;;10163501;28;20493;-66
2023/12/16 02:41:27;;;;;;;8.02;4.50;;;9.10;99.90;;;;;;10178610;28;20174;-66
2023/12/16 02:46:18;;;;;;;10.68;4.63;;;9.20;99.90;;;;;;10169471;28;20032;-66
2023/12/16 02:51:19;;;;;;;7.30;4.32;;;9.10;99.90;;;;;;10165852;28;20034;-68
2023/12/16 02:56:10;;;;;;;7.22;3.65;;;9.20;99.90;;;;;;10171510;28;20580;-66
2023/12/16 03:01:00;;;;;;;6.13;4.07;;;9.10;99.90;;;;;;10173110;28;20020;-67
2023/12/16 03:05:51;;;;;;;11.00;4.38;;;9.20;99.90;;;;;;10141115;28;20063;-66
2023/12/16 03:10:41;;;;;;;5.07;3.42;;;9.10;99.90;;;;;;10163611;28;20024;-65
2023/12/16 03:15:32;;;;;;;7.43;4.10;;;9.10;99.90;;;;;;10174910;28;20036;-65
2023/12/16 03:20:23;;;;;;;6.47;3.63;;;9.10;99.90;;;;;;10165957;28;20008;-65
2023/12/16 03:25:14;;;;;;;6.68;3.67;;;9.00;99.90;;;;;;10172083;28;20421;-66
2023/12/16 03:30:05;;;;;;;6.47;3.85;;;9.00;99.90;;;;;;10167442;28;20543;-66
2023/12/16 03:34:56;;;;;;;4.72;3.20;;;9.00;99.90;;;;;;10173318;28;20054;-65
2023/12/16 03:39:47;;;;;;;4.93;3.25;;;9.00;99.90;;;;;;10174804;28;20103;-66
2023/12/16 03:44:38;;;;;;;3.92;3.10;;;9.00;99.90;;;;;;10169871;28;20041;-66
2023/12/16 03:49:29;;;;;;;7.95;3.47;;;9.10;99.90;;;;;;10179831;28;20020;-65
2023/12/16 03:54:19;;;;;;;5.40;3.72;;;9.10;99.90;;;;;;10177273;28;20020;-65
2023/12/16 03:59:10;;;;;;;6.40;3.53;;;9.00;99.90;;;;;;10176152;28;20107;-65
2023/12/16 04:04:01;;;;;;;5.45;3.30;;;9.10;99.90;;;;;;10175748;28;20522;-65
2023/12/16 04:08:51;;;;;;;6.50;3.78;;;9.10;99.90;;;;;;10170638;28;20438;-65
2023/12/16 04:13:42;;;;;;;6.38;3.97;;;9.10;99.90;;;;;;10171514;28;20042;-65
2023/12/16 04:18:33;;;;;;;7.05;3.80;;;9.00;99.90;;;;;;10173458;28;20101;-66
2023/12/16 04:23:23;;;;;;;4.70;3.13;;;9.00;99.90;;;;;;10175057;28;20035;-66
2023/12/16 04:28:14;;;;;;;4.63;3.33;;;9.00;99.90;;;;;;10160155;28;20055;-66
2023/12/16 04:33:04;;;;;;;4.88;3.22;;;9.00;99.90;;;;;;10186244;28;20027;-66
2023/12/16 04:37:55;;;;;;;6.47;3.45;;;9.10;99.90;;;;;;10183631;28;20076;-65
2023/12/16 04:42:46;;;;;;;5.60;3.63;;;9.10;99.90;;;;;;10153495;28;20050;-66
2023/12/16 04:47:37;;;;;;;4.40;3.05;;;9.10;99.90;;;;;;10180389;28;20036;-66
2023/12/16 04:52:27;;;;;;;6.43;3.00;;;9.00;99.90;;;;;;10178579;28;20062;-66
2023/12/16 04:57:18;;;;;;;3.95;3.15;;;9.10;99.90;;;;;;10178309;28;20055;-66
2023/12/16 05:02:08;;;;;;;6.47;3.13;;;9.00;99.90;;;;;;10158384;28;20356;-66
2023/12/16 05:06:59;;;;;;;4.85;2.70;;;9.00;99.90;;;;;;10181819;28;20089;-66
2023/12/16 05:11:50;;;;;;;4.85;2.70;;;9.00;99.90;;;;;;10178300;28;20032;-66
2023/12/16 05:16:40;;;;;;;4.70;3.58;;;8.90;99.90;;;;;;10176986;28;20066;-66
2023/12/16 05:21:31;;;;;;;5.50;3.28;;;8.90;99.90;;;;;;10179503;28;20024;-67
2023/12/16 05:26:22;;;;;;;5.85;3.97;;;8.80;99.90;;;;;;10175897;28;20056;-66
2023/12/16 05:31:12;;;;;;;7.72;3.85;;;8.80;99.90;;;;;;10180888;28;20586;-66
2023/12/16 05:36:03;;;;;;;6.70;3.72;;;8.90;99.90;;;;;;10178814;28;20031;-66
2023/12/16 05:40:54;;;;;;;6.07;3.40;;;8.80;99.90;;;;;;10157625;28;20032;-66
2023/12/16 05:45:45;;;;;;;6.65;4.15;;;8.90;99.90;;;;;;10167890;28;20043;-66
2023/12/16 05:50:35;;;;;;;5.28;3.63;;;8.90;99.90;;;;;;10177687;28;20026;-66
2023/12/16 05:55:26;;;;;;;7.03;3.50;;;8.80;99.90;;;;;;10176174;28;20043;-66
2023/12/16 06:00:18;;;;;;;6.85;3.85;;;8.80;99.90;;;;;;10180338;28;20024;-67
2023/12/16 06:05:09;;;;;;;4.82;3.17;;;8.80;99.90;;;;;;10178455;28;20040;-66
2023/12/16 06:09:59;;;;;;;5.68;3.05;;;8.80;99.90;;;;;;10180835;28;20039;-66
2023/12/16 06:14:50;;;;;;;7.65;3.25;;;8.80;99.90;;;;;;10176654;28;20398;-66
2023/12/16 06:19:40;;;;;;;4.60;3.40;;;8.70;99.90;;;;;;10176618;28;20032;-66
2023/12/16 06:24:31;;;;;;;7.50;4.03;;;8.80;99.90;;;;;;10171762;28;20036;-67
2023/12/16 06:29:22;;;;;;;6.43;3.60;;;8.70;99.90;;;;;;10177582;28;20506;-67
2023/12/16 06:34:13;;;;;;;6.07;3.95;;;8.80;99.90;;;;;;10178095;28;20603;-67
2023/12/16 06:39:03;;;;;;;5.18;3.50;;;8.80;99.90;;;;;;10181362;28;20028;-67
2023/12/16 06:43:54;;;;;;;6.10;3.75;;;8.80;99.90;;;;;;10177087;28;20086;-67
2023/12/16 06:48:45;;;;;;;6.20;4.00;;;8.90;99.90;;;;;;10177780;28;20191;-67
2023/12/16 06:53:36;;;;;;;6.60;4.28;;;8.90;99.90;;;;;;10175305;28;20059;-67
2023/12/16 06:58:27;;;;;;;7.45;3.70;;;8.80;99.90;;;;;;10157007;28;20027;-67
2023/12/16 07:03:17;;;;;;;8.52;4.90;;;8.80;99.90;;;;;;10174745;28;20414;-67
2023/12/16 07:08:08;;;;;;;5.95;4.03;;;8.80;99.90;;;;;;10177918;28;20032;-66
2023/12/16 07:12:59;;;;;;;5.07;3.33;;;8.80;99.90;;;;;;10175068;28;20032;-67
2023/12/16 07:17:49;;;;;;;6.28;3.60;;;8.80;99.90;;;;;;10176082;28;20330;-67
2023/12/16 07:22:40;;;;;;;8.75;4.88;;;8.80;99.90;;;;;;10169274;28;20497;-68
2023/12/16 07:27:31;;;;;;;12.32;4.90;;;8.80;99.90;;;;;;10172872;28;20090;-66
2023/12/16 07:32:22;;;;;;;10.05;7.22;;;8.70;99.90;;;;;;10174443;28;20102;-67
2023/12/16 07:37:13;;;;;;;9.30;6.15;;;8.80;99.90;;;;;;10175615;28;20020;-67
2023/12/16 07:42:04;;;;;;;13.40;6.25;;;8.80;99.90;;;;;;10169092;28;20119;-67
2023/12/16 07:46:55;;;;;;;9.68;6.70;;;8.80;99.90;;;;;;10169922;28;20550;-66
2023/12/16 07:51:45;;;;;;;8.52;5.22;;;8.80;99.90;;;;;;10171476;28;20059;-67
2023/12/16 07:56:36;;;;;;;8.40;4.70;;;8.80;99.90;;;;;;10169521;28;20028;-67
2023/12/16 08:01:27;;;;;;;12.70;5.82;;;8.70;99.90;;;;;;10175606;28;20551;-67
2023/12/16 08:06:17;;;;;;;9.32;5.38;;;8.80;99.90;;;;;;10183258;28;20040;-67
2023/12/16 08:11:09;;;;;;;7.47;5.22;;;8.80;99.90;;;;;;10183274;28;20095;-67
2023/12/16 08:16:00;;;;;;;7.70;5.20;;;8.80;99.90;;;;;;10183713;28;20058;-67
2023/12/16 08:20:51;;;;;;;7.45;5.07;;;8.70;99.90;;;;;;10182962;28;20056;-68
2023/12/16 08:25:42;;;;;;;12.68;6.60;;;8.80;99.90;;;;;;10178170;28;20509;-68
2023/12/16 08:30:33;;;;;;;7.80;4.63;;;8.80;99.90;;;;;;10176621;28;20036;-67
2023/12/16 08:35:23;;;;;;;7.93;5.15;;;8.80;99.90;;;;;;10158968;28;20032;-68
2023/12/16 08:40:14;;;;;;;9.30;5.68;;;8.80;99.90;;;;;;10178017;28;20039;-68
2023/12/16 08:45:05;;;;;;;7.35;4.75;;;8.90;99.90;;;;;;10180300;28;20066;-68
2023/12/16 08:49:55;;;;;;;10.05;5.50;;;8.90;99.90;;;;;;10182278;28;20135;-68
2023/12/16 08:54:46;;;;;;;9.32;5.68;;;9.00;99.90;;;;;;10182118;28;20107;-68
2023/12/16 08:59:37;;;;;;;12.15;6.40;;;9.00;99.90;;;;;;10183669;28;20537;-68
2023/12/16 09:04:27;;;;;;;9.55;5.70;;;9.00;99.90;;;;;;10180737;28;20089;-67
2023/12/16 09:09:18;;;;;;;10.50;5.50;;;9.00;99.90;;;;;;10159618;28;20016;-67
2023/12/16 09:14:09;;;;;;;8.85;5.65;;;9.00;99.90;;;;;;10173780;28;20024;-67
2023/12/16 09:19:00;;;;;;;10.60;5.38;;;9.00;99.90;;;;;;10177357;28;20111;-66
2023/12/16 09:23:50;;;;;;;7.05;5.38;;;9.00;99.90;;;;;;10170740;28;20042;-67
2023/12/16 09:28:41;;;;;;;10.80;5.95;;;9.00;99.90;;;;;;10177482;28;20056;-67
2023/12/16 09:33:31;;;;;;;9.80;5.93;;;8.90;99.90;;;;;;10178447;28;20032;-67
2023/12/16 09:38:22;;;;;;;9.88;6.13;;;9.00;99.90;;;;;;10174446;28;20028;-67
2023/12/16 09:43:17;;;;;;;11.10;6.63;;;9.00;99.90;;;;;;10181536;28;20048;-67
2023/12/16 09:48:07;;;;;;;7.38;4.93;;;9.10;99.90;;;;;;10176038;28;20062;-67
2023/12/16 09:52:59;;;;;;;7.00;5.32;;;9.10;99.90;;;;;;10176292;28;20513;-67
2023/12/16 09:57:50;;;;;;;11.43;5.70;;;9.10;99.90;;;;;;10179594;28;20043;-67
2023/12/16 10:02:45;;;;;;;8.50;5.78;;;9.20;99.90;;;;;;10178393;28;20034;-67
2023/12/16 10:07:35;;;;;;;10.30;6.70;;;9.20;99.90;;;;;;10171059;28;20036;-67
2023/12/16 10:12:33;;;;;;;9.57;6.80;;;9.20;99.90;;;;;;10174938;28;20028;-67
2023/12/16 10:17:25;;;;;;;10.88;6.47;;;9.20;99.90;;;;;;10173431;28;20116;-67
2023/12/16 10:22:17;;;;;;;8.18;5.65;;;9.30;99.90;;;;;;10174025;28;20043;-67
2023/12/16 10:27:10;;;;;;;9.65;6.45;;;9.40;99.90;;;;;;10176560;28;20109;-67
2023/12/16 10:32:01;;;;;;;11.75;7.32;;;9.40;99.90;;;;;;10158615;28;20054;-67
2023/12/16 10:36:52;;;;;;;9.40;5.75;;;9.40;99.90;;;;;;10146958;28;20020;-68
2023/12/16 10:41:43;;;;;;;12.20;5.47;;;9.60;99.90;;;;;;10175622;28;20102;-67
2023/12/16 10:46:36;;;;;;;8.93;5.22;;;9.50;99.90;;;;;;10160717;28;20135;-65
2023/12/16 10:51:29;;;;;;;9.95;5.80;;;9.50;99.90;;;;;;10179809;28;20024;-66
2023/12/16 10:56:30;;;;;;;10.82;5.57;;;9.50;99.90;;;;;;10176391;28;20024;-66
2023/12/16 11:01:25;;;;;;;9.63;6.32;;;9.40;99.90;;;;;;10172550;28;20020;-67
2023/12/16 11:06:22;;;;;;;11.48;5.68;;;9.40;99.90;;;;;;10178415;28;20122;-67
2023/12/16 11:11:14;;;;;;;11.93;7.38;;;9.40;99.90;;;;;;10155123;28;20097;-66
2023/12/16 11:16:13;;;;;;;8.57;5.07;;;9.30;99.90;;;;;;10173631;28;20020;-66
2023/12/16 11:21:07;;;;;;;8.45;4.88;;;9.30;99.90;;;;;;10170760;28;20124;-66
2023/12/16 11:26:02;;;;;;;11.15;4.80;;;9.40;99.90;;;;;;10154263;28;20060;-67
2023/12/16 11:30:56;;;;;;;7.28;4.40;;;9.40;99.90;;;;;;10173734;28;20020;-66
2023/12/16 11:35:49;;;;;;;8.43;4.45;;;9.40;99.90;;;;;;10156541;28;20067;-67
2023/12/16 11:40:42;;;;;;;8.52;4.45;;;9.50;99.90;;;;;;10176774;28;20074;-67
2023/12/16 11:45:37;;;;;;;7.28;5.13;;;9.50;99.90;;;;;;10176254;28;20039;-67
2023/12/16 11:50:28;;;;;;;6.47;4.20;;;9.50;99.90;;;;;;10182893;28;20100;-66
2023/12/16 11:55:19;;;;;;;9.00;4.45;;;9.60;99.90;;;;;;10175642;28;20020;-66
2023/12/16 12:00:10;;;;;;;6.85;4.60;;;9.60;99.90;;;;;;10175893;28;20063;-67
2023/12/16 12:05:01;;;;;;;9.80;6.07;;;9.60;99.90;;;;;;10174606;28;20104;-66
2023/12/16 12:09:52;;;;;;;7.85;5.15;;;9.70;99.90;;;;;;10174942;28;20035;-66
2023/12/16 12:14:46;;;;;;;15.00;5.30;;;9.80;99.90;;;;;;10174218;28;20040;-67
2023/12/16 12:19:38;;;;;;;7.63;4.00;;;9.80;99.90;;;;;;10178917;28;20102;-66
2023/12/16 12:24:28;;;;;;;6.88;4.57;;;9.80;99.90;;;;;;10154971;28;20055;-67
2023/12/16 12:29:19;;;;;;;9.75;4.43;;;9.80;99.90;;;;;;10174326;28;20119;-67
2023/12/16 12:34:20;;;;;;;11.10;3.63;;;9.80;99.90;;;;;;10170325;28;20074;-68
2023/12/16 12:39:20;;;;;;;6.85;2.70;;;9.80;99.90;;;;;;10154782;28;20020;-67
2023/12/16 12:44:14;;;;;;;4.47;3.05;;;9.80;99.90;;;;;;10167968;28;20046;-67
2023/12/16 12:49:04;;;;;;;10.55;3.72;;;9.70;99.90;;;;;;10167091;28;20030;-66
2023/12/16 12:53:56;;;;;;;6.90;3.05;;;9.80;99.90;;;;;;10164225;28;20031;-67
2023/12/16 12:58:47;;;;;;;6.30;3.65;;;9.80;99.90;;;;;;10182512;28;20024;-66
2023/12/16 13:03:38;;;;;;;5.60;2.85;;;9.80;99.90;;;;;;10182414;28;20039;-66
2023/12/16 13:08:29;;;;;;;6.47;2.40;;;9.70;99.90;;;;;;10182500;28;20046;-66
2023/12/16 13:13:20;;;;;;;3.45;2.05;;;9.70;99.90;;;;;;10177670;28;20047;-66
2023/12/16 13:18:12;;;;;;;6.80;2.30;;;9.80;99.90;;;;;;10163483;28;20016;-66
2023/12/16 13:23:03;;;;;;;3.92;2.55;;;9.80;99.90;;;;;;10173093;28;20185;-66
2023/12/16 13:27:54;;;;;;;4.30;2.75;;;9.80;99.90;;;;;;10162349;28;20632;-66
2023/12/16 13:32:44;;;;;;;2.97;2.17;;;9.80;99.90;;;;;;10175272;28;20020;-65
2023/12/16 13:37:35;;;;;;;4.47;2.10;;;9.80;99.90;;;;;;10176598;28;20028;-66
2023/12/16 13:42:26;;;;;;;5.25;2.80;;;9.80;99.90;;;;;;10183812;28;20473;-65
2023/12/16 13:47:19;;;;;;;7.28;2.50;;;9.80;99.90;;;;;;10179333;28;20027;-66
2023/12/16 13:52:10;;;;;;;5.80;2.05;;;9.80;99.90;;;;;;10161733;28;20032;-66
2023/12/16 13:57:02;;;;;;;5.30;2.13;;;9.80;99.90;;;;;;10178646;28;20036;-67
2023/12/16 14:01:53;;;;;;;7.35;2.92;;;9.70;99.90;;;;;;10177460;28;20035;-65
2023/12/16 14:06:44;;;;;;;5.05;2.13;;;9.60;99.90;;;;;;10178517;28;20393;-66
2023/12/16 14:11:34;;;;;;;7.47;2.20;;;9.70;99.90;;;;;;10175140;28;20103;-67
2023/12/16 14:16:25;;;;;;;3.42;1.95;;;9.70;99.90;;;;;;10175993;28;20047;-66
2023/12/16 14:21:16;;;;;;;2.65;1.38;;;9.70;99.90;;;;;;10178317;28;20024;-67
2023/12/16 14:26:06;;;;;;;3.55;1.83;;;9.70;99.90;;;;;;10175928;28;20410;-65
2023/12/16 14:30:57;;;;;;;6.90;2.10;;;9.70;99.90;;;;;;10177770;28;20375;-65
2023/12/16 14:35:48;;;;;;;3.25;1.77;;;9.70;99.90;;;;;;10178038;28;20521;-66
2023/12/16 14:40:40;;;;;;;3.42;1.67;;;9.70;99.90;;;;;;10181763;28;20024;-67
2023/12/16 14:45:32;;;;;;;4.05;1.85;;;9.70;99.90;;;;;;10159786;28;20156;-66
2023/12/16 14:50:22;;;;;;;4.40;1.77;;;9.70;99.90;;;;;;10175047;28;20107;-67
2023/12/16 14:55:13;;;;;;;5.80;1.98;;;9.60;99.90;;;;;;10176184;28;20036;-67
2023/12/16 15:00:04;;;;;;;6.28;1.73;;;9.70;99.90;;;;;;10172663;28;20447;-66
2023/12/16 15:04:55;;;;;;;5.63;2.40;;;9.70;99.90;;;;;;10171941;28;20036;-67
2023/12/16 15:09:46;;;;;;;4.95;2.30;;;9.60;99.90;;;;;;10177818;28;20089;-66
2023/12/16 15:14:36;;;;;;;6.57;1.85;;;9.60;99.90;;;;;;10171898;28;20059;-67
2023/12/16 15:19:27;;;;;;;8.48;2.40;;;9.60;99.90;;;;;;10173892;28;20028;-66
2023/12/16 15:24:18;;;;;;;4.75;1.83;;;9.60;99.90;;;;;;10173539;28;20040;-67
2023/12/16 15:29:08;;;;;;;5.25;2.00;;;9.60;99.90;;;;;;10176857;28;20501;-67
2023/12/16 15:33:59;;;;;;;2.35;1.55;;;9.60;99.90;;;;;;10174237;28;20039;-67
2023/12/16 15:38:49;;;;;;;5.25;1.98;;;9.50;99.90;;;;;;10177285;28;20031;-67
2023/12/16 15:43:40;;;;;;;8.13;1.58;;;9.50;99.90;;;;;;10176296;28;20517;-67
2023/12/16 15:48:31;;;;;;;8.48;2.40;;;9.40;99.90;;;;;;10178365;28;20143;-66
2023/12/16 15:53:22;;;;;;;3.65;1.83;;;9.50;99.90;;;;;;10170615;28;20105;-65
2023/12/16 15:58:12;;;;;;;4.32;1.45;;;9.40;99.90;;;;;;10176406;28;20036;-66
2023/12/16 16:03:03;;;;;;;7.30;1.80;;;9.50;99.90;;;;;;10178977;28;20040;-67
2023/12/16 16:07:54;;;;;;;4.00;2.10;;;9.40;99.90;;;;;;10175719;28;20031;-66
2023/12/16 16:12:45;;;;;;;6.53;2.50;;;9.40;99.90;;;;;;10175791;28;20047;-66
2023/12/16 16:17:35;;;;;;;3.78;1.73;;;9.40;99.90;;;;;;10175694;28;20469;-67
2023/12/16 16:22:27;;;;;;;6.82;2.80;;;9.40;99.90;;;;;;10174664;28;20032;-66
2023/12/16 16:27:18;;;;;;;4.82;2.35;;;9.30;99.90;;;;;;10162261;28;20070;-66
2023/12/16 16:32:09;;;;;;;7.25;2.92;;;9.30;99.90;;;;;;10176022;28;20081;-66
2023/12/16 16:37:00;;;;;;;7.00;3.75;;;9.30;99.90;;;;;;10170301;28;20762;-67
2023/12/16 16:41:50;;;;;;;7.05;3.25;;;9.30;99.90;;;;;;10183546;28;20032;-65
2023/12/16 16:46:41;;;;;;;5.85;2.60;;;9.30;99.90;;;;;;10183206;28;20040;-67
2023/12/16 16:51:32;;;;;;;5.63;3.03;;;9.30;99.90;;;;;;10168187;28;20031;-66
2023/12/16 16:56:23;;;;;;;6.45;3.03;;;9.20;99.90;;;;;;10159666;28;20393;-67
2023/12/16 17:01:14;;;;;;;8.50;2.70;;;9.20;99.90;;;;;;10178915;28;20028;-66
2023/12/16 17:06:05;;;;;;;7.38;3.30;;;9.20;99.90;;;;;;10178263;28;20039;-66
2023/12/16 17:10:56;;;;;;;4.15;2.95;;;9.20;99.90;;;;;;10182261;28;20032;-66
2023/12/16 17:15:47;;;;;;;6.32;3.50;;;9.10;99.90;;;;;;10181914;28;20025;-67
2023/12/16 17:20:38;;;;;;;10.45;4.18;;;9.10;99.90;;;;;;10179499;28;20036;-66
2023/12/16 17:25:29;;;;;;;6.60;3.22;;;9.10;99.90;;;;;;10177087;28;20068;-66
2023/12/16 17:30:19;;;;;;;8.10;4.35;;;9.10;99.90;;;;;;10181919;28;20044;-66
2023/12/16 17:35:10;;;;;;;9.75;3.83;;;9.00;99.90;;;;;;10172775;28;20023;-66
2023/12/16 17:40:01;;;;;;;7.68;4.10;;;9.10;99.90;;;;;;10161712;28;20035;-66
2023/12/16 17:44:53;;;;;;;10.55;4.30;;;9.00;99.90;;;;;;10181195;28;20032;-66
2023/12/16 17:49:43;;;;;;;12.85;4.43;;;9.00;99.90;;;;;;10180006;28;20047;-66
2023/12/16 17:54:34;;;;;;;8.40;5.47;;;9.00;99.90;;;;;;10175365;28;20024;-67
2023/12/16 17:59:25;;;;;;;10.65;5.53;;;9.00;99.90;;;;;;10175482;28;20074;-67
2023/12/16 18:04:15;;;;;;;11.45;6.03;;;9.10;99.90;;;;;;10161384;28;20032;-67
2023/12/16 18:09:09;;;;;;;8.70;5.10;;;9.00;99.90;;;;;;10179368;28;20032;-66
2023/12/16 18:14:00;;;;;;;12.13;6.32;;;9.00;99.90;;;;;;10176646;28;20029;-67
2023/12/16 18:18:51;;;;;;;13.60;6.10;;;9.00;99.90;;;;;;10170588;28;20024;-66
2023/12/16 18:23:42;;;;;;;13.63;6.18;;;8.90;99.90;;;;;;10171039;28;20062;-67
2023/12/16 18:28:33;;;;;;;15.38;7.32;;;8.90;99.90;;;;;;10157322;28;20047;-67
2023/12/16 18:33:24;;;;;;;17.25;7.70;;;8.90;99.90;;;;;;10169646;28;20166;-67
2023/12/16 18:38:15;;;;;;;11.27;6.60;;;8.80;99.90;;;;;;10172508;28;20202;-67
2023/12/16 18:43:06;;;;;;;8.85;5.38;;;8.70;99.90;;;;;;10178715;28;20109;-69
2023/12/16 18:47:56;;;;;;;12.23;6.00;;;8.70;99.90;;;;;;10174048;28;20925;-67
2023/12/16 18:52:47;;;;;;;15.35;8.68;;;8.70;99.90;;;;;;10146178;28;20028;-67
2023/12/16 18:57:39;;;;;;;13.80;7.85;;;8.60;99.90;;;;;;10177146;28;20367;-68
2023/12/16 19:02:29;;;;;;;15.65;7.80;;;8.60;99.90;;;;;;10151510;28;20072;-66
2023/12/16 19:07:25;;;;;;;20.98;9.65;;;8.50;99.90;;;;;;10174760;28;20397;-67
2023/12/16 19:12:15;;;;;;;20.70;9.07;;;8.50;99.90;;;;;;10177262;28;20040;-67
2023/12/16 19:17:07;;;;;;;14.73;9.40;;;8.50;99.90;;;;;;10177473;28;20590;-68
2023/12/16 19:21:58;;;;;;;18.90;9.20;;;8.50;99.90;;;;;;10167390;28;20137;-67
2023/12/16 19:26:49;;;;;;;17.10;8.85;;;8.50;99.90;;;;;;10174630;28;20126;-70
2023/12/16 19:31:40;;;;;;;16.23;8.15;;;8.40;99.90;;;;;;10179511;28;20070;-72
2023/12/16 19:36:30;;;;;;;14.60;8.85;;;8.40;99.90;;;;;;10166735;28;20020;-70
2023/12/16 19:41:21;;;;;;;20.40;9.13;;;8.40;99.90;;;;;;10175632;28;20671;-71
2023/12/16 19:46:12;;;;;;;17.65;9.07;;;8.30;99.90;;;;;;10178163;28;20036;-71
2023/12/16 19:51:03;;;;;;;17.73;9.63;;;8.40;99.90;;;;;;10176785;28;20378;-75
2023/12/16 19:55:54;;;;;;;20.02;9.70;;;8.30;99.90;;;;;;10170605;28;20107;-76
2023/12/16 20:00:44;;;;;;;17.05;7.25;;;8.30;99.90;;;;;;10166223;28;20028;-81
2023/12/16 20:05:38;;;;;;;10.88;6.35;;;8.30;99.90;;;;;;10164924;28;20047;-79
2023/12/16 20:10:29;;;;;;;16.67;8.10;;;8.20;99.90;;;;;;10171408;28;20036;-77
2023/12/16 20:15:20;;;;;;;14.35;6.90;;;8.10;99.90;;;;;;10182703;28;20493;-76
2023/12/16 20:20:10;;;;;;;10.85;6.13;;;8.10;99.90;;;;;;10181860;28;20165;-80
2023/12/16 20:25:02;;;;;;;10.70;5.60;;;8.00;99.90;;;;;;10182155;28;20040;-81
2023/12/16 20:29:53;;;;;;;13.60;6.32;;;8.00;99.90;;;;;;10153500;28;20551;-75
2023/12/16 20:34:43;;;;;;;13.05;6.47;;;8.00;99.90;;;;;;10170770;28;20033;-75
2023/12/16 20:44:43;;;;;;;9.32;5.50;;;7.90;99.90;;;;;;10168188;28;20051;-76
2023/12/16 20:49:34;;;;;;;14.10;6.53;;;7.80;99.90;;;;;;10175997;28;20023;-77
2023/12/16 20:54:24;;;;;;;11.88;6.53;;;7.80;99.90;;;;;;10150829;28;20024;-75
2023/12/16 20:59:15;;;;;;;9.27;5.65;;;7.70;99.90;;;;;;10175833;28;20024;-83
2023/12/16 21:04:06;;;;;;;11.18;6.80;;;7.70;99.90;;;;;;10172430;28;20040;-75
2023/12/16 21:08:56;;;;;;;14.63;6.68;;;7.70;99.90;;;;;;10171010;28;20024;-76
2023/12/16 21:13:47;;;;;;;10.40;6.80;;;7.70;99.90;;;;;;10178083;28;20032;-76
2023/12/16 21:18:38;;;;;;;13.43;6.85;;;7.70;99.90;;;;;;10178502;28;20078;-79
2023/12/16 21:23:29;;;;;;;11.55;7.15;;;7.70;99.90;;;;;;10176223;28;20036;-75
2023/12/16 21:28:20;;;;;;;9.82;6.32;;;7.80;99.90;;;;;;10170947;28;20585;-76
2023/12/16 21:33:11;;;;;;;17.05;8.30;;;7.80;99.90;;;;;;10155580;28;20028;-76
2023/12/16 21:38:02;;;;;;;14.60;7.88;;;7.90;99.90;;;;;;10169663;28;20024;-76
2023/12/16 21:42:54;;;;;;;13.20;7.38;;;7.80;99.90;;;;;;10168949;28;20135;-80
2023/12/16 21:47:45;;;;;;;18.83;7.88;;;7.70;99.90;;;;;;10155565;28;20028;-81
2023/12/16 21:52:35;;;;;;;17.75;7.95;;;7.70;99.90;;;;;;10178109;28;20028;-80
2023/12/16 21:57:26;;;;;;;13.15;8.40;;;7.60;99.90;;;;;;10160118;28;20031;-82
2023/12/16 22:02:17;;;;;;;17.02;7.78;;;7.50;99.90;;;;;;10188148;28;20028;-81
2023/12/16 22:07:08;;;;;;;18.17;9.82;;;7.50;99.90;;;;;;10181109;28;20024;-75
2023/12/16 22:11:58;;;;;;;19.50;8.93;;;7.50;99.90;;;;;;10174879;28;20679;-77
2023/12/16 22:16:49;;;;;;;12.80;7.85;;;7.40;99.90;;;;;;10161118;28;20493;-77
2023/12/16 22:21:39;;;;;;;14.82;7.45;;;7.30;99.90;;;;;;10174591;28;20047;-77
2023/12/16 22:26:30;;;;;;;11.15;5.75;;;7.40;99.90;;;;;;10161508;28;20123;-74
2023/12/16 22:31:22;;;;;;;9.93;6.40;;;7.30;99.90;;;;;;10181799;28;20039;-75
2023/12/16 22:36:13;;;;;;;10.35;5.82;;;7.30;99.90;;;;;;10180337;28;20039;-72
2023/12/16 22:41:04;;;;;;;11.45;7.05;;;7.20;99.90;;;;;;10169009;28;20510;-76
2023/12/16 22:45:55;;;;;;;10.77;6.22;;;7.30;99.90;;;;;;10158833;28;20044;-76
2023/12/16 22:50:46;;;;;;;10.98;5.28;;;7.20;99.90;;;;;;10169313;28;20035;-76
2023/12/16 22:55:36;;;;;;;8.55;5.57;;;7.20;99.90;;;;;;10172867;28;20034;-75
2023/12/16 23:00:30;;;;;;;11.57;6.38;;;7.10;99.90;;;;;;10173626;28;20115;-70
2023/12/16 23:05:21;;;;;;;10.63;5.70;;;7.00;99.90;;;;;;10172106;28;20586;-73
2023/12/16 23:10:12;;;;;;;7.43;5.13;;;7.00;99.90;;;;;;10176470;28;20028;-76
2023/12/16 23:15:03;;;;;;;6.68;5.10;;;7.00;99.90;;;;;;10175936;28;20102;-75
2023/12/16 23:19:53;;;;;;;7.03;5.40;;;6.90;99.90;;;;;;10177386;28;20111;-79
2023/12/16 23:24:44;;;;;;;7.90;4.35;;;6.80;99.90;;;;;;10184442;28;20036;-75
2023/12/16 23:29:35;;;;;;;7.90;4.78;;;6.80;99.90;;;;;;10183910;28;20059;-80
2023/12/16 23:34:26;;;;;;;7.90;4.68;;;6.80;99.90;;;;;;10168432;28;20107;-79
2023/12/16 23:39:16;;;;;;;9.00;4.95;;;6.80;99.90;;;;;;10154657;28;20119;-78
2023/12/16 23:44:07;;;;;;;9.77;6.03;;;6.70;99.90;;;;;;10172282;28;20089;-78
2023/12/16 23:48:58;;;;;;;8.43;4.65;;;6.70;99.90;;;;;;10175003;28;20069;-78
2023/12/16 23:53:48;;;;;;;13.50;5.72;;;6.70;99.90;;;;;;10176947;28;20032;-75
2023/12/16 23:58:39;;;;;;;9.73;6.03;;;6.70;99.90;;;;;;10177228;28;20561;-76
